Time;durP1;ratioP1;P1;durP2;ratioP2;P2;SDS_P1;SDS_P2;PMS_P1;PMS_P2;Temp;Humidity;BMP_temperature;BMP_pressure;BME280_temperature;BME280_humidity;BME280_pressure;Samples;Min_cycle;Max_cycle;Signal;HPM_P1;HPM_P2
2022/01/30 00:12:15;;;;;;;18.93;3.90;;;;;;;7.36;86.91;98051.52;714742;1174;114348;-75
2022/01/30 00:27:27;;;;;;;15.10;3.33;;;;;;;7.32;84.60;98077.95;714103;1174;114420;-75
2022/01/30 00:42:29;;;;;;;15.43;4.25;;;;;;;7.05;83.64;98055.70;714448;1174;114076;-75
2022/01/30 00:57:32;;;;;;;17.35;2.73;;;;;;;6.80;85.60;98066.16;714005;1174;114156;-74
2022/01/30 01:27:42;;;;;;;14.00;2.93;;;;;;;6.56;88.33;98014.08;714244;1174;114205;-74
2022/01/30 01:42:44;;;;;;;15.37;4.27;;;;;;;6.61;88.23;97991.78;714129;1174;114464;-74
2022/01/30 01:57:46;;;;;;;13.15;3.83;;;;;;;6.74;83.87;97974.81;713952;1174;114048;-76
2022/01/30 02:12:52;;;;;;;15.93;5.13;;;;;;;6.79;83.83;97970.71;714278;1174;115136;-75
2022/01/30 02:27:57;;;;;;;21.88;4.10;;;;;;;6.36;86.91;97954.55;714278;1174;114544;-73
2022/01/30 02:43:00;;;;;;;15.13;3.30;;;;;;;6.21;87.07;97925.74;714033;1174;114456;-74
2022/01/30 02:58:02;;;;;;;11.57;3.40;;;;;;;6.32;86.41;97906.35;714204;1174;114432;-74
2022/01/30 03:13:04;;;;;;;14.28;3.48;;;;;;;6.37;85.72;97875.42;714207;1173;114986;-74
2022/01/30 03:28:07;;;;;;;10.53;3.10;;;;;;;5.90;87.82;97848.33;714113;1174;114047;-74
2022/01/30 03:43:09;;;;;;;11.57;2.83;;;;;;;5.24;95.45;97866.53;714288;1174;114548;-74
2022/01/30 03:58:13;;;;;;;4.65;1.75;;;;;;;5.01;98.12;97855.91;714089;1174;113830;-75
2022/01/30 04:13:16;;;;;;;10.00;1.70;;;;;;;4.94;100.00;97824.56;714134;1174;114215;-73
2022/01/30 04:28:19;;;;;;;6.17;1.57;;;;;;;4.45;100.00;97837.41;714392;1174;113936;-74
2022/01/30 05:14:08;;;;;;;13.03;3.03;;;;;;;4.55;100.00;97814.70;714147;1174;113820;-74
2022/01/30 05:29:10;;;;;;;14.68;3.70;;;;;;;4.45;100.00;97785.48;714097;1173;113809;-74
2022/01/30 05:44:18;;;;;;;19.38;4.65;;;;;;;4.45;100.00;97769.91;714453;1173;115357;-75
2022/01/30 05:59:20;;;;;;;17.25;4.03;;;;;;;4.45;100.00;97795.87;714425;1174;114044;-74
2022/01/30 06:14:23;;;;;;;15.38;3.55;;;;;;;4.28;100.00;97800.98;714228;1174;114655;-74
2022/01/30 06:29:25;;;;;;;7.78;2.48;;;;;;;4.41;98.83;97769.39;714201;1174;113855;-74
2022/01/30 06:44:27;;;;;;;15.78;5.60;;;;;;;4.03;97.89;97844.16;714696;1173;114050;-75
2022/01/30 06:59:30;;;;;;;26.07;8.17;;;;;;;4.16;99.46;97818.60;715114;1174;115007;-77
2022/01/30 07:14:32;;;;;;;9.88;3.63;;;;;;;4.34;98.80;97812.51;714589;1174;114490;-76
2022/01/30 07:29:34;;;;;;;91.70;32.05;;;;;;;4.45;99.96;97796.66;715058;1174;113377;-75
2022/01/30 07:44:36;;;;;;;31.53;9.83;;;;;;;4.60;99.93;97811.64;714831;1174;114768;-77
2022/01/30 07:59:38;;;;;;;21.48;8.50;;;;;;;4.66;99.24;97790.25;715795;1173;113630;-77
2022/01/30 08:14:41;;;;;;;29.73;18.05;;;;;;;4.76;100.00;97783.11;714987;1173;114113;-76
2022/01/30 08:29:43;;;;;;;26.70;10.95;;;;;;;4.77;100.00;97797.72;715035;1174;113997;-79
2022/01/30 08:44:45;;;;;;;22.98;6.20;;;;;;;4.77;100.00;97821.10;715270;1173;114858;-77
2022/01/30 08:59:48;;;;;;;55.65;20.52;;;;;;;4.44;100.00;97862.53;717785;1174;113848;-87
2022/01/30 09:14:50;;;;;;;86.18;29.38;;;;;;;4.65;100.00;97874.32;718283;1173;114877;-89
2022/01/30 09:29:53;;;;;;;123.53;46.87;;;;;;;4.89;100.00;97893.56;717843;1174;114401;-89
2022/01/30 09:45:00;;;;;;;49.55;21.45;;;;;;;5.29;100.00;97936.23;718706;1174;114847;-89
2022/01/30 10:00:04;;;;;;;;;;;;;;;5.38;100.00;97979.47;718013;1174;114021;-90
2022/01/30 10:15:15;;;;;;;38.65;19.93;;;;;;;5.78;100.00;97997.92;717929;1173;101116;-85
2022/01/30 10:30:21;;;;;;;15.93;9.50;;;;;;;5.28;100.00;98025.61;718952;1173;113883;-88
2022/01/30 10:45:31;;;;;;;15.38;6.13;;;;;;;4.78;100.00;98090.30;718335;1173;114688;-77
2022/01/30 11:00:46;;;;;;;17.40;8.43;;;;;;;4.41;100.00;98138.05;714835;1174;114599;-75
2022/01/30 11:16:54;;;;;;;16.13;6.83;;;;;;;4.69;100.00;98163.94;716445;1174;115417;-88
2022/01/30 11:31:16;;;;;;;50.53;17.58;;;;;;;4.53;100.00;98177.59;715532;1174;114773;-75
2022/01/30 11:46:19;;;;;;;41.03;17.27;;;;;;;4.23;100.00;98194.33;714730;1174;114003;-77
2022/01/30 12:01:26;;;;;;;30.43;14.28;;;;;;;4.06;100.00;98229.66;714388;1168;114185;-76
2022/01/30 12:17:00;;;;;;;23.05;9.93;;;;;;;4.42;100.00;98271.27;714600;1174;114146;-76
2022/01/30 12:32:22;;;;;;;8.60;4.08;;;;;;;4.55;100.00;98326.27;714945;1173;115627;-77
2022/01/30 12:47:25;;;;;;;15.70;5.73;;;;;;;4.64;100.00;98346.18;716594;1174;114101;-86
2022/01/30 13:02:29;;;;;;;16.83;6.10;;;;;;;4.87;100.00;98381.34;714583;1173;113932;-76
2022/01/30 13:17:32;;;;;;;13.43;5.65;;;;;;;5.30;100.00;98403.25;715184;1174;113967;-76
2022/01/30 13:32:40;;;;;;;9.60;3.35;;;;;;;5.63;100.00;98434.77;714656;1174;115482;-76
2022/01/30 13:47:42;;;;;;;5.53;2.30;;;;;;;6.03;95.64;98485.59;714921;1174;113807;-75
2022/01/30 14:03:04;;;;;;;72.48;24.73;;;;;;;6.37;90.63;98504.88;715224;1174;113683;-76
2022/01/30 14:18:12;;;;;;;80.22;28.45;;;;;;;6.53;86.08;98538.84;715121;1173;115603;-75
2022/01/30 14:33:15;;;;;;;;;;;;;;;6.41;81.76;98589.56;714800;1173;114016;-75
2022/01/30 14:48:18;;;;;;;194.80;58.75;;;;;;;6.49;80.07;98613.07;715379;1174;99376;-86
2022/01/30 15:03:22;;;;;;;66.53;26.40;;;;;;;6.47;78.18;98643.68;717272;1174;115152;-85
2022/01/30 15:18:34;;;;;;;38.07;18.10;;;;;;;6.30;76.45;98706.02;717653;1173;114733;-86
2022/01/30 15:33:37;;;;;;;30.38;14.88;;;;;;;6.36;74.22;98707.23;717872;1174;115068;-84
2022/01/30 16:04:02;;;;;;;18.80;7.70;;;;;;;5.38;82.77;98770.01;717886;1174;114174;-86
2022/01/30 16:19:06;;;;;;;73.23;27.00;;;;;;;4.87;90.76;98823.09;718340;1170;115396;-87
2022/01/30 16:34:08;;;;;;;13.18;5.95;;;;;;;4.13;100.00;98944.44;719012;1174;114186;-89
2022/01/30 16:49:11;;;;;;;8.33;3.65;;;;;;;3.65;100.00;98930.98;720809;1174;113897;-87
2022/01/30 17:04:14;;;;;;;14.35;7.10;;;;;;;3.57;100.00;98950.72;719309;1174;113794;-85
2022/01/30 17:19:17;;;;;;;16.65;7.38;;;;;;;3.59;100.00;98951.40;716258;1174;114020;-80
2022/01/30 17:34:19;;;;;;;44.55;18.58;;;;;;;3.90;100.00;98939.38;716162;1174;114060;-89
2022/01/30 17:49:24;;;;;;;73.50;26.33;;;;;;;3.97;100.00;98930.15;715777;1174;115045;-80
2022/01/30 18:04:29;;;;;;;57.13;17.65;;;;;;;4.03;100.00;98964.33;717120;1173;114535;-76
2022/01/30 18:19:32;;;;;;;16.38;6.75;;;;;;;4.40;100.00;99019.23;717122;1173;115757;-81
2022/01/30 18:34:35;;;;;;;7.35;3.45;;;;;;;3.93;100.00;99063.69;717988;1174;115409;-85
2022/01/30 18:49:40;;;;;;;5.98;2.70;;;;;;;3.88;100.00;99098.72;718122;1173;113856;-85
2022/01/30 19:04:46;;;;;;;14.90;4.80;;;;;;;4.12;98.41;99135.70;717951;1173;113885;-84
2022/01/30 19:19:50;;;;;;;9.45;3.63;;;;;;;4.12;95.29;99119.32;719005;1174;113727;-84
2022/01/30 19:34:52;;;;;;;12.43;3.50;;;;;;;4.25;92.70;99126.92;716041;1174;113620;-84
2022/01/30 19:49:55;;;;;;;36.85;11.63;;;;;;;4.21;94.56;99138.50;715013;1173;114954;-74
2022/01/30 20:04:57;;;;;;;63.00;21.05;;;;;;;4.23;93.31;99144.41;714375;1174;114874;-75
2022/01/30 20:20:01;;;;;;;84.45;26.43;;;;;;;3.98;95.33;99180.09;715955;1174;114172;-76
2022/01/30 20:35:04;;;;;;;30.48;12.90;;;;;;;3.39;100.00;99175.97;714692;1173;113421;-75
2022/01/30 20:50:11;;;;;;;64.33;19.85;;;;;;;3.63;100.00;99194.03;715352;1173;114797;-74
2022/01/30 21:05:14;;;;;;;90.83;24.47;;;;;;;3.71;99.05;99183.89;715492;1174;114689;-75
2022/01/30 21:20:16;;;;;;;58.13;15.83;;;;;;;4.04;95.90;99192.59;714649;1174;114561;-75
2022/01/30 21:35:19;;;;;;;133.87;34.53;;;;;;;4.27;88.68;99213.32;715695;1174;114633;-90
2022/01/30 21:50:21;;;;;;;61.87;19.23;;;;;;;4.44;85.81;99236.17;716668;1174;115641;-87
2022/01/30 22:05:23;;;;;;;54.63;16.20;;;;;;;4.61;84.19;99234.03;716281;1174;115804;-83
2022/01/30 22:20:25;;;;;;;40.93;17.93;;;;;;;4.39;84.02;99240.91;719234;1174;114803;-84
2022/01/30 22:35:28;;;;;;;31.78;14.15;;;;;;;4.23;84.20;99262.06;715738;1167;114862;-83
2022/01/30 22:50:30;;;;;;;13.47;6.73;;;;;;;4.19;82.82;99275.41;714829;1174;113920;-82
2022/01/30 23:05:32;;;;;;;15.28;5.85;;;;;;;4.18;83.30;99276.34;715012;1174;114520;-84
2022/01/30 23:20:35;;;;;;;7.00;3.65;;;;;;;4.09;86.35;99289.10;715062;1173;115737;-77
2022/01/30 23:35:37;;;;;;;6.63;2.90;;;;;;;3.96;85.73;99298.78;714056;1174;115125;-76
2022/01/30 23:50:39;;;;;;;3.93;1.80;;;;;;;3.81;81.02;99299.00;714232;1174;113496;-77
